createdAt,value
2018-07-06T00:03:21.265Z,93.40
2018-07-06T00:08:37.757Z,93.70
2018-07-06T00:11:19.203Z,93.70
2018-07-06T00:14:01.727Z,94.00
2018-07-06T00:16:42.875Z,94.50
2018-07-06T00:19:30.622Z,94.70
2018-07-06T00:22:14.797Z,95.20
2018-07-06T00:25:04.627Z,95.40
2018-07-06T00:27:48.173Z,95.80
2018-07-06T00:30:30.346Z,95.90
2018-07-06T00:33:15.496Z,96.20
2018-07-06T00:35:57.974Z,96.80
2018-07-06T00:38:41.418Z,97.20
2018-07-06T00:41:23.002Z,97.80
2018-07-06T00:44:05.119Z,98.20
2018-07-06T00:46:46.922Z,98.70
2018-07-06T00:49:28.640Z,99.20
2018-07-06T00:55:24.425Z,99.80
2018-07-06T00:58:10.043Z,99.90
2018-07-06T01:00:50.492Z,99.90
2018-07-06T01:03:31.661Z,99.90
2018-07-06T01:06:12.428Z,99.90
2018-07-06T01:11:43.929Z,99.90
2018-07-06T01:14:25.329Z,99.90
2018-07-06T01:17:11.615Z,99.90
2018-07-06T01:19:58.036Z,99.90
2018-07-06T01:22:45.368Z,99.90
2018-07-06T01:25:30.590Z,99.90
2018-07-06T01:28:12.000Z,99.90
2018-07-06T01:30:52.338Z,99.90
2018-07-06T01:33:33.493Z,99.90
2018-07-06T01:36:13.979Z,99.90
2018-07-06T01:38:55.597Z,99.90
2018-07-06T01:41:36.406Z,99.90
2018-07-06T01:44:17.017Z,99.90
2018-07-06T01:46:57.256Z,99.90
2018-07-06T01:52:22.615Z,99.90
2018-07-06T01:55:04.690Z,99.90
2018-07-06T01:57:45.340Z,99.90
2018-07-06T02:00:27.444Z,99.90
2018-07-06T02:03:07.654Z,99.90
2018-07-06T02:05:55.377Z,99.90
2018-07-06T02:08:38.165Z,99.90
2018-07-06T02:11:18.550Z,99.90
2018-07-06T02:13:58.597Z,99.90
2018-07-06T02:16:39.090Z,99.90
2018-07-06T02:19:19.598Z,99.90
2018-07-06T02:22:01.927Z,99.90
2018-07-06T02:24:46.662Z,99.90
2018-07-06T02:27:32.750Z,99.90
2018-07-06T02:30:13.652Z,99.90
2018-07-06T02:32:56.819Z,99.90
2018-07-06T02:35:38.381Z,99.90
2018-07-06T02:38:21.493Z,99.90
2018-07-06T02:41:04.708Z,99.90
2018-07-06T02:43:53.315Z,99.90
2018-07-06T02:46:43.779Z,99.90
2018-07-06T02:49:26.906Z,99.90
2018-07-06T02:52:17.837Z,99.90
2018-07-06T02:55:00.174Z,99.90
2018-07-06T02:57:43.410Z,99.90
2018-07-06T03:00:24.384Z,99.90
2018-07-06T03:03:05.613Z,99.90
2018-07-06T03:05:55.229Z,99.90
2018-07-06T03:08:41.038Z,99.90
2018-07-06T03:11:25.330Z,99.90
2018-07-06T03:14:12.990Z,99.90
2018-07-06T03:16:58.171Z,99.90
2018-07-06T03:22:15.693Z,99.90
2018-07-06T03:25:00.199Z,99.90
2018-07-06T03:27:40.386Z,99.90
2018-07-06T03:30:27.730Z,99.90
2018-07-06T03:33:11.591Z,99.90
2018-07-06T03:38:32.476Z,99.90
2018-07-06T03:43:51.820Z,99.90
2018-07-06T03:46:38.340Z,99.90
2018-07-06T03:49:19.973Z,99.90
2018-07-06T03:52:00.383Z,99.90
2018-07-06T03:54:40.976Z,99.90
2018-07-06T03:57:23.081Z,99.90
2018-07-06T04:00:07.111Z,99.90
2018-07-06T04:02:56.538Z,99.90
2018-07-06T04:05:43.682Z,99.90
2018-07-06T04:08:24.881Z,99.90
2018-07-06T04:11:13.260Z,99.90
2018-07-06T04:13:53.646Z,99.90
2018-07-06T04:16:34.462Z,99.90
2018-07-06T04:19:15.308Z,99.90
2018-07-06T04:21:56.650Z,99.90
2018-07-06T04:27:22.059Z,99.90
2018-07-06T04:30:02.312Z,99.90
2018-07-06T04:32:42.587Z,99.90
2018-07-06T04:35:32.980Z,99.90
2018-07-06T04:38:17.638Z,99.90
2018-07-06T04:41:02.608Z,99.90
2018-07-06T04:46:20.648Z,99.90
2018-07-06T04:51:36.018Z,99.90
2018-07-06T04:54:16.661Z,99.90
2018-07-06T04:56:57.213Z,99.90
2018-07-06T04:59:38.106Z,99.90
2018-07-06T05:02:21.312Z,99.90
2018-07-06T05:05:08.311Z,99.90
2018-07-06T05:07:48.983Z,99.90
2018-07-06T05:10:30.995Z,99.90
2018-07-06T05:13:14.783Z,99.90
2018-07-06T05:18:53.054Z,99.90
2018-07-06T05:21:35.247Z,99.90
2018-07-06T05:29:38.563Z,99.90
2018-07-06T05:32:19.247Z,99.90
2018-07-06T05:35:07.660Z,99.90
2018-07-06T05:37:50.522Z,99.90
2018-07-06T05:40:30.592Z,99.90
2018-07-06T05:43:11.267Z,99.90
2018-07-06T05:45:51.495Z,99.90
2018-07-06T05:48:31.859Z,99.90
2018-07-06T05:51:12.536Z,99.90
2018-07-06T05:53:52.943Z,99.90
2018-07-06T05:56:33.126Z,99.90
2018-07-06T05:59:13.281Z,99.90
2018-07-06T06:01:53.944Z,99.90
2018-07-06T06:04:34.085Z,99.90
2018-07-06T06:07:15.095Z,99.90
2018-07-06T06:12:21.572Z,99.90
2018-07-06T06:14:52.672Z,99.90
2018-07-06T06:17:34.546Z,99.90
2018-07-06T06:20:04.421Z,99.90
2018-07-06T06:22:36.939Z,99.90
2018-07-06T06:25:06.143Z,99.90
2018-07-06T06:27:35.372Z,99.90
2018-07-06T06:30:04.680Z,99.90
2018-07-06T06:32:33.910Z,99.90
2018-07-06T06:35:18.278Z,99.90
2018-07-06T06:37:50.928Z,99.90
2018-07-06T06:40:27.062Z,99.90
2018-07-06T06:42:59.857Z,99.90
2018-07-06T06:45:29.535Z,99.90
2018-07-06T06:48:02.459Z,99.90
2018-07-06T06:50:38.409Z,99.90
2018-07-06T06:53:07.653Z,99.90
2018-07-06T06:55:47.219Z,99.90
2018-07-06T06:58:23.058Z,99.90
2018-07-06T07:00:57.541Z,99.90
2018-07-06T07:03:28.366Z,99.90
2018-07-06T07:08:49.322Z,99.90
2018-07-06T07:11:19.358Z,99.10
2018-07-06T07:13:49.383Z,98.70
2018-07-06T07:16:19.243Z,97.80
2018-07-06T07:18:49.416Z,97.20
2018-07-06T07:23:48.975Z,94.90
2018-07-06T07:26:18.914Z,93.60
2018-07-06T07:28:48.632Z,94.00
2018-07-06T07:31:18.338Z,95.70
2018-07-06T07:33:47.808Z,95.90
2018-07-06T07:36:17.687Z,94.30
2018-07-06T07:38:47.121Z,92.90
2018-07-06T07:41:17.149Z,91.90
2018-07-06T07:43:47.416Z,91.70
2018-07-06T07:46:22.771Z,91.70
2018-07-06T07:48:52.929Z,91.40
2018-07-06T07:52:01.172Z,91.40
2018-07-06T07:57:16.877Z,91.90
2018-07-06T08:00:00.513Z,91.80
2018-07-06T08:08:29.797Z,91.00
2018-07-06T08:11:00.891Z,90.30
2018-07-06T08:13:30.697Z,89.50
2018-07-06T08:18:30.605Z,91.80
2018-07-06T08:21:00.716Z,91.80
2018-07-06T08:23:30.104Z,91.90
2018-07-06T08:26:00.469Z,90.90
2018-07-06T08:28:30.166Z,91.00
2018-07-06T08:33:35.670Z,92.20
2018-07-06T08:38:29.127Z,92.10
2018-07-06T08:41:20.703Z,91.40
2018-07-06T08:44:01.382Z,91.60
2018-07-06T08:46:34.029Z,90.70
2018-07-06T08:49:03.396Z,89.00
2018-07-06T08:51:32.550Z,87.40
2018-07-06T08:54:01.947Z,87.10
2018-07-06T08:56:31.176Z,87.30
2018-07-06T08:59:00.741Z,86.70
2018-07-06T09:01:32.235Z,87.20
2018-07-06T09:04:02.447Z,88.70
2018-07-06T09:06:33.356Z,90.00
2018-07-06T09:09:02.924Z,90.70
2018-07-06T09:11:39.061Z,90.90
2018-07-06T09:14:12.533Z,89.70
2018-07-06T09:16:44.017Z,88.10
2018-07-06T09:19:13.702Z,88.40
2018-07-06T09:21:45.133Z,86.30
2018-07-06T09:24:15.812Z,86.50
2018-07-06T09:26:45.776Z,86.90
2018-07-06T09:29:16.928Z,86.40
2018-07-06T09:31:46.237Z,83.90
2018-07-06T09:34:33.534Z,82.40
2018-07-06T09:37:03.783Z,82.10
2018-07-06T09:39:33.078Z,76.80
2018-07-06T09:42:27.098Z,75.00
2018-07-06T09:45:03.095Z,71.40
2018-07-06T09:47:41.959Z,61.30
2018-07-06T09:50:19.717Z,62.20
2018-07-06T09:52:50.743Z,63.70
2018-07-06T09:55:27.598Z,71.10
2018-07-06T09:58:16.567Z,71.80
2018-07-06T10:01:13.942Z,66.40
2018-07-06T10:03:53.407Z,66.60
2018-07-06T10:06:25.940Z,66.00
2018-07-06T10:08:56.379Z,65.90
2018-07-06T10:11:26.482Z,64.30
2018-07-06T10:13:58.125Z,59.50
2018-07-06T10:16:28.196Z,58.30
2018-07-06T10:18:59.479Z,56.90
2018-07-06T10:21:29.404Z,57.10
2018-07-06T10:23:59.564Z,56.90
2018-07-06T10:26:30.012Z,53.50
2018-07-06T10:29:42.802Z,49.90
2018-07-06T10:32:20.481Z,45.90
2018-07-06T10:34:50.157Z,43.00
2018-07-06T10:37:21.180Z,40.60
2018-07-06T10:39:52.508Z,40.20
2018-07-06T10:45:32.358Z,43.70
2018-07-06T10:48:05.459Z,42.10
2018-07-06T10:50:37.684Z,40.20
2018-07-06T10:53:09.717Z,39.70
2018-07-06T10:55:40.267Z,40.10
2018-07-06T10:58:10.349Z,40.20
2018-07-06T11:00:40.373Z,40.80
2018-07-06T11:03:10.699Z,39.70
2018-07-06T11:05:55.816Z,38.80
2018-07-06T11:08:30.144Z,38.20
2018-07-06T11:11:03.534Z,36.20
2018-07-06T11:13:35.422Z,35.60
2018-07-06T11:40:54.219Z,38.00
2018-07-06T11:43:39.441Z,37.80
2018-07-06T11:46:16.339Z,36.10
2018-07-06T11:48:46.219Z,34.80
2018-07-06T11:51:45.787Z,34.20
2018-07-06T11:54:25.266Z,34.80
2018-07-06T11:56:57.539Z,35.10
2018-07-06T11:59:38.610Z,35.30
2018-07-06T12:02:14.663Z,35.00
2018-07-06T12:04:53.549Z,34.30
2018-07-06T12:07:33.575Z,35.30
2018-07-06T12:10:14.518Z,36.70
2018-07-06T12:26:21.199Z,37.00
2018-07-06T12:29:10.506Z,37.90
2018-07-06T12:31:45.429Z,39.70
2018-07-06T12:34:28.528Z,40.20
2018-07-06T12:39:40.049Z,36.90
2018-07-06T12:42:18.023Z,35.70
2018-07-06T12:45:32.224Z,36.00
2018-07-06T12:48:28.079Z,36.20
2018-07-06T12:51:44.800Z,35.70
2018-07-06T12:54:33.884Z,34.60
2018-07-06T12:57:18.327Z,34.70
2018-07-06T12:59:55.007Z,35.40
2018-07-06T13:02:58.927Z,37.70
2018-07-06T13:06:30.485Z,39.90
2018-07-06T13:09:16.815Z,40.50
2018-07-06T13:16:42.889Z,41.20
2018-07-06T13:26:47.191Z,42.60
2018-07-06T13:30:06.251Z,44.60
2018-07-06T13:39:40.067Z,44.90
2018-07-06T13:42:29.829Z,45.00
2018-07-06T14:03:52.228Z,46.00
